sensor_id;sensor_type;location;lat;lon;timestamp;P1;durP1;ratioP1;P2;durP2;ratioP2
17024;SDS011;8629;42.496;25.620;2022-07-23T00:01:34;5.47;;;2.47;;
17024;SDS011;8629;42.496;25.620;2022-07-23T00:04:01;5.10;;;2.70;;
17024;SDS011;8629;42.496;25.620;2022-07-23T00:06:28;15.47;;;4.00;;
17024;SDS011;8629;42.496;25.620;2022-07-23T00:08:57;47.73;;;5.23;;
17024;SDS011;8629;42.496;25.620;2022-07-23T00:11:25;9.03;;;2.77;;
17024;SDS011;8629;42.496;25.620;2022-07-23T00:13:52;23.90;;;4.10;;
17024;SDS011;8629;42.496;25.620;2022-07-23T00:16:21;6.00;;;2.70;;
17024;SDS011;8629;42.496;25.620;2022-07-23T00:18:48;4.43;;;2.40;;
17024;SDS011;8629;42.496;25.620;2022-07-23T00:21:15;4.03;;;3.20;;
17024;SDS011;8629;42.496;25.620;2022-07-23T00:23:42;4.80;;;2.63;;
17024;SDS011;8629;42.496;25.620;2022-07-23T00:26:11;6.80;;;3.17;;
17024;SDS011;8629;42.496;25.620;2022-07-23T00:28:38;4.97;;;2.57;;
17024;SDS011;8629;42.496;25.620;2022-07-23T00:31:05;3.13;;;2.93;;
17024;SDS011;8629;42.496;25.620;2022-07-23T00:33:32;4.30;;;2.50;;
17024;SDS011;8629;42.496;25.620;2022-07-23T00:36:00;6.50;;;2.97;;
17024;SDS011;8629;42.496;25.620;2022-07-23T00:38:27;5.33;;;2.47;;
17024;SDS011;8629;42.496;25.620;2022-07-23T00:40:54;4.80;;;3.27;;
17024;SDS011;8629;42.496;25.620;2022-07-23T00:43:23;3.53;;;3.00;;
17024;SDS011;8629;42.496;25.620;2022-07-23T00:45:50;3.70;;;2.90;;
17024;SDS011;8629;42.496;25.620;2022-07-23T00:48:17;3.80;;;2.40;;
17024;SDS011;8629;42.496;25.620;2022-07-23T00:50:45;6.40;;;3.13;;
17024;SDS011;8629;42.496;25.620;2022-07-23T00:53:13;3.63;;;2.93;;
17024;SDS011;8629;42.496;25.620;2022-07-23T00:55:40;6.93;;;3.50;;
17024;SDS011;8629;42.496;25.620;2022-07-23T00:58:07;3.73;;;3.07;;
17024;SDS011;8629;42.496;25.620;2022-07-23T01:03:58;4.00;;;2.83;;
17024;SDS011;8629;42.496;25.620;2022-07-23T01:06:25;2.93;;;2.63;;
17024;SDS011;8629;42.496;25.620;2022-07-23T01:08:52;2.93;;;2.63;;
17024;SDS011;8629;42.496;25.620;2022-07-23T01:11:21;3.50;;;3.13;;
17024;SDS011;8629;42.496;25.620;2022-07-23T01:13:49;6.20;;;2.60;;
17024;SDS011;8629;42.496;25.620;2022-07-23T01:16:16;3.60;;;2.70;;
17024;SDS011;8629;42.496;25.620;2022-07-23T01:18:43;3.00;;;2.80;;
17024;SDS011;8629;42.496;25.620;2022-07-23T01:21:13;4.97;;;3.10;;
17024;SDS011;8629;42.496;25.620;2022-07-23T01:23:45;19.37;;;3.83;;
17024;SDS011;8629;42.496;25.620;2022-07-23T01:26:12;3.43;;;2.63;;
17024;SDS011;8629;42.496;25.620;2022-07-23T01:28:42;9.53;;;3.70;;
17024;SDS011;8629;42.496;25.620;2022-07-23T01:31:10;3.40;;;2.80;;
17024;SDS011;8629;42.496;25.620;2022-07-23T01:33:37;3.17;;;2.97;;
17024;SDS011;8629;42.496;25.620;2022-07-23T01:36:04;8.60;;;3.10;;
17024;SDS011;8629;42.496;25.620;2022-07-23T01:38:32;4.17;;;2.70;;
17024;SDS011;8629;42.496;25.620;2022-07-23T01:41:01;3.40;;;2.97;;
17024;SDS011;8629;42.496;25.620;2022-07-23T01:43:29;2.80;;;2.60;;
17024;SDS011;8629;42.496;25.620;2022-07-23T01:45:59;4.07;;;2.93;;
17024;SDS011;8629;42.496;25.620;2022-07-23T01:48:26;5.10;;;3.00;;
17024;SDS011;8629;42.496;25.620;2022-07-23T01:50:55;3.37;;;3.07;;
17024;SDS011;8629;42.496;25.620;2022-07-23T01:53:23;5.60;;;3.13;;
17024;SDS011;8629;42.496;25.620;2022-07-23T01:56:10;4.83;;;3.63;;
17024;SDS011;8629;42.496;25.620;2022-07-23T01:58:40;3.97;;;3.23;;
17024;SDS011;8629;42.496;25.620;2022-07-23T02:01:07;7.43;;;2.83;;
17024;SDS011;8629;42.496;25.620;2022-07-23T02:03:34;8.33;;;3.20;;
17024;SDS011;8629;42.496;25.620;2022-07-23T02:06:01;3.33;;;2.80;;
17024;SDS011;8629;42.496;25.620;2022-07-23T02:08:30;3.23;;;2.80;;
17024;SDS011;8629;42.496;25.620;2022-07-23T02:10:57;5.97;;;3.13;;
17024;SDS011;8629;42.496;25.620;2022-07-23T02:13:26;5.10;;;2.83;;
17024;SDS011;8629;42.496;25.620;2022-07-23T02:15:57;3.60;;;2.77;;
17024;SDS011;8629;42.496;25.620;2022-07-23T02:18:25;13.37;;;3.73;;
17024;SDS011;8629;42.496;25.620;2022-07-23T02:20:52;5.00;;;2.73;;
17024;SDS011;8629;42.496;25.620;2022-07-23T02:23:20;10.97;;;3.40;;
17024;SDS011;8629;42.496;25.620;2022-07-23T02:29:15;4.87;;;3.43;;
17024;SDS011;8629;42.496;25.620;2022-07-23T02:31:42;3.30;;;2.93;;
17024;SDS011;8629;42.496;25.620;2022-07-23T02:34:09;3.23;;;2.80;;
17024;SDS011;8629;42.496;25.620;2022-07-23T02:36:36;4.50;;;3.00;;
17024;SDS011;8629;42.496;25.620;2022-07-23T02:39:04;5.23;;;3.47;;
17024;SDS011;8629;42.496;25.620;2022-07-23T02:41:31;4.13;;;3.20;;
17024;SDS011;8629;42.496;25.620;2022-07-23T02:44:03;3.27;;;2.97;;
17024;SDS011;8629;42.496;25.620;2022-07-23T02:46:45;5.03;;;3.80;;
17024;SDS011;8629;42.496;25.620;2022-07-23T02:55:38;5.73;;;3.40;;
17024;SDS011;8629;42.496;25.620;2022-07-23T02:58:07;4.70;;;3.30;;
17024;SDS011;8629;42.496;25.620;2022-07-23T03:00:36;4.13;;;2.93;;
17024;SDS011;8629;42.496;25.620;2022-07-23T03:03:04;5.87;;;3.17;;
17024;SDS011;8629;42.496;25.620;2022-07-23T03:05:32;3.53;;;3.23;;
17024;SDS011;8629;42.496;25.620;2022-07-23T03:07:59;5.87;;;3.67;;
17024;SDS011;8629;42.496;25.620;2022-07-23T03:10:27;6.20;;;3.53;;
17024;SDS011;8629;42.496;25.620;2022-07-23T03:12:54;5.37;;;3.53;;
17024;SDS011;8629;42.496;25.620;2022-07-23T03:15:21;9.90;;;3.10;;
17024;SDS011;8629;42.496;25.620;2022-07-23T03:17:48;6.97;;;3.43;;
17024;SDS011;8629;42.496;25.620;2022-07-23T03:23:43;4.90;;;3.10;;
17024;SDS011;8629;42.496;25.620;2022-07-23T03:26:12;16.43;;;4.47;;
17024;SDS011;8629;42.496;25.620;2022-07-23T03:28:46;14.97;;;4.50;;
17024;SDS011;8629;42.496;25.620;2022-07-23T03:31:14;13.13;;;3.90;;
17024;SDS011;8629;42.496;25.620;2022-07-23T03:33:47;13.73;;;3.67;;
17024;SDS011;8629;42.496;25.620;2022-07-23T03:36:19;10.87;;;4.73;;
17024;SDS011;8629;42.496;25.620;2022-07-23T03:41:44;8.27;;;3.33;;
17024;SDS011;8629;42.496;25.620;2022-07-23T03:44:16;7.97;;;3.17;;
17024;SDS011;8629;42.496;25.620;2022-07-23T03:53:46;9.40;;;3.47;;
17024;SDS011;8629;42.496;25.620;2022-07-23T03:59:44;13.23;;;4.27;;
17024;SDS011;8629;42.496;25.620;2022-07-23T04:02:11;14.97;;;4.77;;
17024;SDS011;8629;42.496;25.620;2022-07-23T04:04:39;12.67;;;4.30;;
17024;SDS011;8629;42.496;25.620;2022-07-23T04:07:06;29.57;;;4.53;;
17024;SDS011;8629;42.496;25.620;2022-07-23T04:09:35;8.77;;;3.90;;
17024;SDS011;8629;42.496;25.620;2022-07-23T04:12:02;5.37;;;3.30;;
17024;SDS011;8629;42.496;25.620;2022-07-23T04:17:53;7.77;;;3.63;;
17024;SDS011;8629;42.496;25.620;2022-07-23T04:20:20;6.03;;;4.03;;
17024;SDS011;8629;42.496;25.620;2022-07-23T04:22:47;7.30;;;4.00;;
17024;SDS011;8629;42.496;25.620;2022-07-23T04:28:36;5.27;;;3.50;;
17024;SDS011;8629;42.496;25.620;2022-07-23T04:31:03;9.50;;;4.37;;
17024;SDS011;8629;42.496;25.620;2022-07-23T04:33:32;7.47;;;3.90;;
17024;SDS011;8629;42.496;25.620;2022-07-23T04:35:58;4.27;;;3.50;;
17024;SDS011;8629;42.496;25.620;2022-07-23T04:38:27;9.77;;;4.50;;
17024;SDS011;8629;42.496;25.620;2022-07-23T04:40:54;8.87;;;4.30;;
17024;SDS011;8629;42.496;25.620;2022-07-23T04:43:22;18.47;;;5.07;;
17024;SDS011;8629;42.496;25.620;2022-07-23T04:45:49;10.60;;;4.67;;
17024;SDS011;8629;42.496;25.620;2022-07-23T04:48:17;12.13;;;4.33;;
17024;SDS011;8629;42.496;25.620;2022-07-23T05:00:17;4.40;;;3.90;;
17024;SDS011;8629;42.496;25.620;2022-07-23T05:02:48;9.87;;;4.43;;
17024;SDS011;8629;42.496;25.620;2022-07-23T05:05:15;5.73;;;3.80;;
17024;SDS011;8629;42.496;25.620;2022-07-23T05:07:43;10.53;;;4.50;;
17024;SDS011;8629;42.496;25.620;2022-07-23T05:10:10;4.50;;;3.37;;
17024;SDS011;8629;42.496;25.620;2022-07-23T05:12:38;5.53;;;3.83;;
17024;SDS011;8629;42.496;25.620;2022-07-23T05:15:07;5.60;;;3.73;;
17024;SDS011;8629;42.496;25.620;2022-07-23T05:20:39;6.87;;;4.33;;
17024;SDS011;8629;42.496;25.620;2022-07-23T05:23:07;7.30;;;4.17;;
17024;SDS011;8629;42.496;25.620;2022-07-23T05:25:35;6.23;;;4.43;;
17024;SDS011;8629;42.496;25.620;2022-07-23T05:28:03;7.67;;;4.33;;
17024;SDS011;8629;42.496;25.620;2022-07-23T05:30:34;5.77;;;4.17;;
17024;SDS011;8629;42.496;25.620;2022-07-23T05:33:01;12.70;;;4.10;;
17024;SDS011;8629;42.496;25.620;2022-07-23T05:35:29;4.77;;;3.80;;
17024;SDS011;8629;42.496;25.620;2022-07-23T05:38:06;3.90;;;3.20;;
17024;SDS011;8629;42.496;25.620;2022-07-23T05:47:20;8.07;;;4.30;;
17024;SDS011;8629;42.496;25.620;2022-07-23T05:50:05;5.80;;;3.73;;
17024;SDS011;8629;42.496;25.620;2022-07-23T05:52:36;4.37;;;3.47;;
17024;SDS011;8629;42.496;25.620;2022-07-23T05:55:10;11.50;;;4.37;;
17024;SDS011;8629;42.496;25.620;2022-07-23T05:57:46;6.17;;;3.97;;
17024;SDS011;8629;42.496;25.620;2022-07-23T06:03:36;3.83;;;3.40;;
17024;SDS011;8629;42.496;25.620;2022-07-23T06:06:19;5.17;;;4.03;;
17024;SDS011;8629;42.496;25.620;2022-07-23T06:09:21;3.93;;;3.40;;
17024;SDS011;8629;42.496;25.620;2022-07-23T06:12:13;6.07;;;3.80;;
17024;SDS011;8629;42.496;25.620;2022-07-23T06:14:56;8.40;;;3.70;;
17024;SDS011;8629;42.496;25.620;2022-07-23T06:17:40;5.07;;;3.57;;
17024;SDS011;8629;42.496;25.620;2022-07-23T06:20:36;6.57;;;3.50;;
17024;SDS011;8629;42.496;25.620;2022-07-23T06:23:22;6.30;;;4.23;;
17024;SDS011;8629;42.496;25.620;2022-07-23T06:26:15;4.33;;;3.60;;
17024;SDS011;8629;42.496;25.620;2022-07-23T06:28:45;7.10;;;3.40;;
17024;SDS011;8629;42.496;25.620;2022-07-23T06:31:13;9.70;;;3.50;;
17024;SDS011;8629;42.496;25.620;2022-07-23T06:33:55;3.83;;;3.47;;
17024;SDS011;8629;42.496;25.620;2022-07-23T06:36:41;9.70;;;3.97;;
17024;SDS011;8629;42.496;25.620;2022-07-23T06:39:13;4.78;;;3.60;;
17024;SDS011;8629;42.496;25.620;2022-07-23T06:41:51;5.80;;;4.07;;
17024;SDS011;8629;42.496;25.620;2022-07-23T06:44:41;4.35;;;3.50;;
17024;SDS011;8629;42.496;25.620;2022-07-23T06:47:08;7.70;;;4.20;;
17024;SDS011;8629;42.496;25.620;2022-07-23T06:49:37;4.57;;;3.80;;
17024;SDS011;8629;42.496;25.620;2022-07-23T06:52:08;5.60;;;4.03;;
17024;SDS011;8629;42.496;25.620;2022-07-23T06:54:35;10.52;;;3.83;;
17024;SDS011;8629;42.496;25.620;2022-07-23T06:57:02;5.13;;;3.65;;
17024;SDS011;8629;42.496;25.620;2022-07-23T06:59:29;6.03;;;3.20;;
17024;SDS011;8629;42.496;25.620;2022-07-23T07:01:56;9.23;;;4.80;;
17024;SDS011;8629;42.496;25.620;2022-07-23T07:04:24;9.80;;;4.00;;
17024;SDS011;8629;42.496;25.620;2022-07-23T07:06:51;7.13;;;4.85;;
17024;SDS011;8629;42.496;25.620;2022-07-23T07:09:19;7.53;;;4.10;;
17024;SDS011;8629;42.496;25.620;2022-07-23T07:15:14;4.95;;;3.63;;
17024;SDS011;8629;42.496;25.620;2022-07-23T07:17:42;6.13;;;4.28;;
17024;SDS011;8629;42.496;25.620;2022-07-23T07:20:09;6.15;;;3.53;;
17024;SDS011;8629;42.496;25.620;2022-07-23T07:22:36;5.13;;;4.57;;
17024;SDS011;8629;42.496;25.620;2022-07-23T07:25:06;7.75;;;4.22;;
17024;SDS011;8629;42.496;25.620;2022-07-23T07:27:34;6.53;;;3.60;;
17024;SDS011;8629;42.496;25.620;2022-07-23T07:30:02;5.07;;;3.40;;
17024;SDS011;8629;42.496;25.620;2022-07-23T07:32:29;5.82;;;3.90;;
17024;SDS011;8629;42.496;25.620;2022-07-23T07:34:57;6.00;;;4.25;;
17024;SDS011;8629;42.496;25.620;2022-07-23T07:37:24;6.40;;;3.85;;
17024;SDS011;8629;42.496;25.620;2022-07-23T07:39:52;8.90;;;4.18;;
17024;SDS011;8629;42.496;25.620;2022-07-23T07:42:20;5.00;;;4.13;;
17024;SDS011;8629;42.496;25.620;2022-07-23T07:44:47;5.82;;;3.90;;
17024;SDS011;8629;42.496;25.620;2022-07-23T07:47:15;5.13;;;3.83;;
17024;SDS011;8629;42.496;25.620;2022-07-23T07:49:46;5.93;;;3.75;;
17024;SDS011;8629;42.496;25.620;2022-07-23T07:52:14;6.93;;;3.90;;
17024;SDS011;8629;42.496;25.620;2022-07-23T07:54:41;13.35;;;4.18;;
17024;SDS011;8629;42.496;25.620;2022-07-23T07:57:08;6.35;;;3.65;;
17024;SDS011;8629;42.496;25.620;2022-07-23T07:59:45;4.72;;;3.97;;
17024;SDS011;8629;42.496;25.620;2022-07-23T08:02:13;5.80;;;3.92;;
17024;SDS011;8629;42.496;25.620;2022-07-23T08:04:41;12.20;;;4.43;;
17024;SDS011;8629;42.496;25.620;2022-07-23T08:07:09;6.82;;;4.05;;
17024;SDS011;8629;42.496;25.620;2022-07-23T08:09:39;4.60;;;4.20;;
17024;SDS011;8629;42.496;25.620;2022-07-23T08:12:08;6.82;;;4.22;;
17024;SDS011;8629;42.496;25.620;2022-07-23T08:14:35;7.82;;;4.25;;
17024;SDS011;8629;42.496;25.620;2022-07-23T08:17:04;6.10;;;3.88;;
17024;SDS011;8629;42.496;25.620;2022-07-23T08:19:31;7.47;;;5.13;;
17024;SDS011;8629;42.496;25.620;2022-07-23T08:22:00;7.15;;;4.53;;
17024;SDS011;8629;42.496;25.620;2022-07-23T08:24:28;4.05;;;3.65;;
17024;SDS011;8629;42.496;25.620;2022-07-23T08:26:55;4.00;;;3.53;;
17024;SDS011;8629;42.496;25.620;2022-07-23T08:29:22;10.98;;;4.95;;
17024;SDS011;8629;42.496;25.620;2022-07-23T08:34:59;6.22;;;4.45;;
17024;SDS011;8629;42.496;25.620;2022-07-23T08:37:26;10.45;;;4.97;;
17024;SDS011;8629;42.496;25.620;2022-07-23T08:39:54;5.15;;;4.65;;
17024;SDS011;8629;42.496;25.620;2022-07-23T08:42:21;5.25;;;4.75;;
17024;SDS011;8629;42.496;25.620;2022-07-23T08:44:48;6.60;;;4.13;;
17024;SDS011;8629;42.496;25.620;2022-07-23T08:47:16;7.65;;;4.63;;
17024;SDS011;8629;42.496;25.620;2022-07-23T08:49:43;4.57;;;4.18;;
17024;SDS011;8629;42.496;25.620;2022-07-23T08:52:13;7.18;;;4.50;;
17024;SDS011;8629;42.496;25.620;2022-07-23T08:54:40;5.97;;;4.65;;
17024;SDS011;8629;42.496;25.620;2022-07-23T08:57:07;7.65;;;4.10;;
17024;SDS011;8629;42.496;25.620;2022-07-23T08:59:35;9.57;;;4.18;;
17024;SDS011;8629;42.496;25.620;2022-07-23T09:02:03;5.13;;;4.40;;
17024;SDS011;8629;42.496;25.620;2022-07-23T09:04:30;4.80;;;4.45;;
17024;SDS011;8629;42.496;25.620;2022-07-23T09:06:58;6.18;;;4.32;;
17024;SDS011;8629;42.496;25.620;2022-07-23T09:09:30;5.13;;;4.10;;
17024;SDS011;8629;42.496;25.620;2022-07-23T09:12:04;4.43;;;3.90;;
17024;SDS011;8629;42.496;25.620;2022-07-23T09:14:38;9.07;;;4.20;;
17024;SDS011;8629;42.496;25.620;2022-07-23T09:17:09;9.43;;;4.50;;
17024;SDS011;8629;42.496;25.620;2022-07-23T09:19:37;8.63;;;4.38;;
17024;SDS011;8629;42.496;25.620;2022-07-23T09:22:18;7.05;;;5.03;;
17024;SDS011;8629;42.496;25.620;2022-07-23T09:25:05;8.13;;;4.18;;
17024;SDS011;8629;42.496;25.620;2022-07-23T09:27:46;4.97;;;4.18;;
17024;SDS011;8629;42.496;25.620;2022-07-23T09:37:13;6.45;;;4.00;;
17024;SDS011;8629;42.496;25.620;2022-07-23T09:39:41;5.88;;;4.03;;
17024;SDS011;8629;42.496;25.620;2022-07-23T09:42:14;6.57;;;3.80;;
17024;SDS011;8629;42.496;25.620;2022-07-23T09:48:09;6.40;;;3.75;;
17024;SDS011;8629;42.496;25.620;2022-07-23T09:50:37;8.00;;;4.55;;
17024;SDS011;8629;42.496;25.620;2022-07-23T09:53:04;5.35;;;4.05;;
17024;SDS011;8629;42.496;25.620;2022-07-23T09:55:32;4.50;;;4.10;;
17024;SDS011;8629;42.496;25.620;2022-07-23T09:58:03;4.82;;;4.05;;
17024;SDS011;8629;42.496;25.620;2022-07-23T10:00:33;4.97;;;4.07;;
17024;SDS011;8629;42.496;25.620;2022-07-23T10:03:00;6.93;;;4.72;;
17024;SDS011;8629;42.496;25.620;2022-07-23T10:05:30;4.53;;;4.13;;
17024;SDS011;8629;42.496;25.620;2022-07-23T10:07:58;7.88;;;4.55;;
17024;SDS011;8629;42.496;25.620;2022-07-23T10:10:26;5.85;;;3.85;;
17024;SDS011;8629;42.496;25.620;2022-07-23T10:12:57;6.72;;;4.47;;
17024;SDS011;8629;42.496;25.620;2022-07-23T10:15:43;7.70;;;5.00;;
17024;SDS011;8629;42.496;25.620;2022-07-23T10:18:10;10.38;;;4.85;;
17024;SDS011;8629;42.496;25.620;2022-07-23T10:20:40;7.20;;;4.10;;
17024;SDS011;8629;42.496;25.620;2022-07-23T10:23:10;6.30;;;4.63;;
17024;SDS011;8629;42.496;25.620;2022-07-23T10:25:42;7.50;;;5.70;;
17024;SDS011;8629;42.496;25.620;2022-07-23T10:31:41;8.68;;;4.80;;
17024;SDS011;8629;42.496;25.620;2022-07-23T10:34:17;8.70;;;4.45;;
17024;SDS011;8629;42.496;25.620;2022-07-23T10:36:49;6.70;;;4.60;;
17024;SDS011;8629;42.496;25.620;2022-07-23T10:39:20;5.18;;;4.07;;
17024;SDS011;8629;42.496;25.620;2022-07-23T10:41:49;6.95;;;5.03;;
17024;SDS011;8629;42.496;25.620;2022-07-23T10:44:18;11.43;;;4.88;;
17024;SDS011;8629;42.496;25.620;2022-07-23T10:46:55;9.43;;;4.50;;
17024;SDS011;8629;42.496;25.620;2022-07-23T10:49:50;6.32;;;4.43;;
17024;SDS011;8629;42.496;25.620;2022-07-23T10:55:40;6.18;;;4.80;;
17024;SDS011;8629;42.496;25.620;2022-07-23T11:01:34;8.90;;;4.68;;
17024;SDS011;8629;42.496;25.620;2022-07-23T11:04:05;9.70;;;4.85;;
17024;SDS011;8629;42.496;25.620;2022-07-23T11:09:40;8.02;;;4.68;;
17024;SDS011;8629;42.496;25.620;2022-07-23T11:15:02;6.18;;;4.63;;
17024;SDS011;8629;42.496;25.620;2022-07-23T11:17:31;5.20;;;4.38;;
17024;SDS011;8629;42.496;25.620;2022-07-23T11:20:31;5.82;;;4.55;;
17024;SDS011;8629;42.496;25.620;2022-07-23T11:22:59;5.22;;;4.30;;
17024;SDS011;8629;42.496;25.620;2022-07-23T11:28:50;5.78;;;4.15;;
17024;SDS011;8629;42.496;25.620;2022-07-23T11:31:19;5.47;;;4.32;;
17024;SDS011;8629;42.496;25.620;2022-07-23T11:36:52;8.85;;;4.80;;
17024;SDS011;8629;42.496;25.620;2022-07-23T11:42:33;10.25;;;5.05;;
17024;SDS011;8629;42.496;25.620;2022-07-23T11:45:05;11.85;;;5.22;;
17024;SDS011;8629;42.496;25.620;2022-07-23T11:50:55;5.75;;;4.45;;
17024;SDS011;8629;42.496;25.620;2022-07-23T11:53:25;6.53;;;4.40;;
17024;SDS011;8629;42.496;25.620;2022-07-23T11:56:02;6.90;;;5.47;;
17024;SDS011;8629;42.496;25.620;2022-07-23T12:01:56;9.10;;;5.40;;
17024;SDS011;8629;42.496;25.620;2022-07-23T12:07:46;10.02;;;4.55;;
17024;SDS011;8629;42.496;25.620;2022-07-23T12:10:18;11.00;;;6.03;;
17024;SDS011;8629;42.496;25.620;2022-07-23T12:12:46;12.32;;;5.00;;
17024;SDS011;8629;42.496;25.620;2022-07-23T12:18:37;8.45;;;5.47;;
17024;SDS011;8629;42.496;25.620;2022-07-23T12:21:04;8.60;;;4.57;;
17024;SDS011;8629;42.496;25.620;2022-07-23T12:23:33;8.05;;;5.15;;
17024;SDS011;8629;42.496;25.620;2022-07-23T12:26:04;9.35;;;4.47;;
17024;SDS011;8629;42.496;25.620;2022-07-23T12:28:32;10.10;;;4.78;;
17024;SDS011;8629;42.496;25.620;2022-07-23T12:31:02;8.63;;;4.82;;
17024;SDS011;8629;42.496;25.620;2022-07-23T12:43:43;9.52;;;4.82;;
17024;SDS011;8629;42.496;25.620;2022-07-23T12:46:12;10.45;;;4.82;;
17024;SDS011;8629;42.496;25.620;2022-07-23T12:48:50;8.35;;;4.80;;
17024;SDS011;8629;42.496;25.620;2022-07-23T12:54:40;14.55;;;4.55;;
17024;SDS011;8629;42.496;25.620;2022-07-23T12:57:07;11.07;;;5.10;;
17024;SDS011;8629;42.496;25.620;2022-07-23T12:59:36;7.78;;;4.35;;
17024;SDS011;8629;42.496;25.620;2022-07-23T13:05:26;10.98;;;6.00;;
17024;SDS011;8629;42.496;25.620;2022-07-23T13:07:53;8.57;;;5.00;;
17024;SDS011;8629;42.496;25.620;2022-07-23T13:10:21;7.57;;;4.88;;
17024;SDS011;8629;42.496;25.620;2022-07-23T13:16:13;7.95;;;4.22;;
17024;SDS011;8629;42.496;25.620;2022-07-23T13:18:41;9.60;;;5.53;;
17024;SDS011;8629;42.496;25.620;2022-07-23T13:21:08;10.43;;;5.03;;
17024;SDS011;8629;42.496;25.620;2022-07-23T13:27:01;9.05;;;4.90;;
17024;SDS011;8629;42.496;25.620;2022-07-23T13:29:30;6.00;;;4.18;;
17024;SDS011;8629;42.496;25.620;2022-07-23T13:32:01;7.35;;;4.50;;
17024;SDS011;8629;42.496;25.620;2022-07-23T13:34:33;10.88;;;4.65;;
17024;SDS011;8629;42.496;25.620;2022-07-23T13:37:00;8.93;;;5.10;;
17024;SDS011;8629;42.496;25.620;2022-07-23T13:42:49;9.15;;;5.22;;
17024;SDS011;8629;42.496;25.620;2022-07-23T13:48:41;7.22;;;4.43;;
17024;SDS011;8629;42.496;25.620;2022-07-23T13:51:08;7.32;;;4.53;;
17024;SDS011;8629;42.496;25.620;2022-07-23T13:53:39;8.65;;;5.22;;
17024;SDS011;8629;42.496;25.620;2022-07-23T13:56:07;10.07;;;4.43;;
17024;SDS011;8629;42.496;25.620;2022-07-23T13:58:34;9.63;;;4.53;;
17024;SDS011;8629;42.496;25.620;2022-07-23T14:01:02;9.00;;;4.78;;
17024;SDS011;8629;42.496;25.620;2022-07-23T14:06:53;8.57;;;5.00;;
17024;SDS011;8629;42.496;25.620;2022-07-23T14:09:20;10.82;;;5.43;;
17024;SDS011;8629;42.496;25.620;2022-07-23T14:11:47;6.97;;;4.80;;
17024;SDS011;8629;42.496;25.620;2022-07-23T14:14:15;9.13;;;4.82;;
17024;SDS011;8629;42.496;25.620;2022-07-23T14:23:28;6.28;;;4.38;;
17024;SDS011;8629;42.496;25.620;2022-07-23T14:25:57;5.85;;;4.63;;
17024;SDS011;8629;42.496;25.620;2022-07-23T14:28:26;7.57;;;4.95;;
17024;SDS011;8629;42.496;25.620;2022-07-23T14:30:53;9.90;;;5.13;;
17024;SDS011;8629;42.496;25.620;2022-07-23T14:33:21;6.90;;;4.88;;
17024;SDS011;8629;42.496;25.620;2022-07-23T14:35:57;9.60;;;5.40;;
17024;SDS011;8629;42.496;25.620;2022-07-23T14:38:32;14.43;;;5.78;;
17024;SDS011;8629;42.496;25.620;2022-07-23T14:41:00;5.70;;;5.07;;
17024;SDS011;8629;42.496;25.620;2022-07-23T14:43:31;6.53;;;4.80;;
17024;SDS011;8629;42.496;25.620;2022-07-23T14:45:59;8.35;;;4.95;;
17024;SDS011;8629;42.496;25.620;2022-07-23T14:48:28;7.50;;;4.50;;
17024;SDS011;8629;42.496;25.620;2022-07-23T14:50:57;8.35;;;4.88;;
17024;SDS011;8629;42.496;25.620;2022-07-23T14:53:25;9.48;;;5.22;;
17024;SDS011;8629;42.496;25.620;2022-07-23T14:55:54;6.07;;;4.68;;
17024;SDS011;8629;42.496;25.620;2022-07-23T14:58:22;7.47;;;4.57;;
17024;SDS011;8629;42.496;25.620;2022-07-23T15:00:50;11.85;;;4.72;;
17024;SDS011;8629;42.496;25.620;2022-07-23T15:03:20;8.57;;;5.82;;
17024;SDS011;8629;42.496;25.620;2022-07-23T15:05:47;10.82;;;4.85;;
17024;SDS011;8629;42.496;25.620;2022-07-23T15:08:16;5.95;;;4.75;;
17024;SDS011;8629;42.496;25.620;2022-07-23T15:10:53;7.97;;;5.78;;
17024;SDS011;8629;42.496;25.620;2022-07-23T15:13:23;7.25;;;5.28;;
17024;SDS011;8629;42.496;25.620;2022-07-23T15:15:54;9.18;;;5.53;;
17024;SDS011;8629;42.496;25.620;2022-07-23T15:18:21;8.90;;;5.00;;
17024;SDS011;8629;42.496;25.620;2022-07-23T15:20:49;9.93;;;4.90;;
17024;SDS011;8629;42.496;25.620;2022-07-23T15:23:17;7.18;;;4.50;;
17024;SDS011;8629;42.496;25.620;2022-07-23T15:25:46;5.32;;;4.82;;
17024;SDS011;8629;42.496;25.620;2022-07-23T15:31:40;6.53;;;4.53;;
17024;SDS011;8629;42.496;25.620;2022-07-23T15:34:11;6.95;;;4.80;;
17024;SDS011;8629;42.496;25.620;2022-07-23T15:36:39;6.65;;;4.85;;
17024;SDS011;8629;42.496;25.620;2022-07-23T15:39:07;9.90;;;5.57;;
17024;SDS011;8629;42.496;25.620;2022-07-23T15:41:34;5.22;;;4.60;;
17024;SDS011;8629;42.496;25.620;2022-07-23T15:44:01;6.78;;;4.68;;
17024;SDS011;8629;42.496;25.620;2022-07-23T15:49:51;9.10;;;5.18;;
17024;SDS011;8629;42.496;25.620;2022-07-23T15:52:18;8.60;;;5.07;;
17024;SDS011;8629;42.496;25.620;2022-07-23T15:54:45;6.85;;;4.40;;
17024;SDS011;8629;42.496;25.620;2022-07-23T16:00:34;7.90;;;5.15;;
17024;SDS011;8629;42.496;25.620;2022-07-23T16:03:01;11.25;;;5.28;;
17024;SDS011;8629;42.496;25.620;2022-07-23T16:05:30;6.80;;;5.15;;
17024;SDS011;8629;42.496;25.620;2022-07-23T16:11:32;8.80;;;5.18;;
17024;SDS011;8629;42.496;25.620;2022-07-23T16:13:59;9.57;;;4.55;;
17024;SDS011;8629;42.496;25.620;2022-07-23T16:16:26;10.32;;;4.93;;
17024;SDS011;8629;42.496;25.620;2022-07-23T16:18:54;9.63;;;5.43;;
17024;SDS011;8629;42.496;25.620;2022-07-23T16:21:23;7.38;;;5.00;;
17024;SDS011;8629;42.496;25.620;2022-07-23T16:23:50;7.38;;;4.82;;
17024;SDS011;8629;42.496;25.620;2022-07-23T16:26:18;9.93;;;4.68;;
17024;SDS011;8629;42.496;25.620;2022-07-23T16:31:40;8.82;;;4.88;;
17024;SDS011;8629;42.496;25.620;2022-07-23T16:34:07;10.27;;;4.93;;
17024;SDS011;8629;42.496;25.620;2022-07-23T16:36:35;6.90;;;4.05;;
17024;SDS011;8629;42.496;25.620;2022-07-23T16:39:03;8.60;;;5.50;;
17024;SDS011;8629;42.496;25.620;2022-07-23T16:41:34;6.60;;;4.82;;
17024;SDS011;8629;42.496;25.620;2022-07-23T16:44:04;6.72;;;4.63;;
17024;SDS011;8629;42.496;25.620;2022-07-23T16:46:32;10.95;;;5.43;;
17024;SDS011;8629;42.496;25.620;2022-07-23T16:49:04;7.95;;;4.68;;
17024;SDS011;8629;42.496;25.620;2022-07-23T17:01:41;11.40;;;6.40;;
17024;SDS011;8629;42.496;25.620;2022-07-23T17:04:08;12.63;;;7.03;;
17024;SDS011;8629;42.496;25.620;2022-07-23T17:06:35;12.13;;;8.35;;
17024;SDS011;8629;42.496;25.620;2022-07-23T17:09:02;8.63;;;6.38;;
17024;SDS011;8629;42.496;25.620;2022-07-23T17:11:29;12.32;;;10.25;;
17024;SDS011;8629;42.496;25.620;2022-07-23T17:13:56;25.48;;;21.50;;
17024;SDS011;8629;42.496;25.620;2022-07-23T17:16:23;18.10;;;14.90;;
17024;SDS011;8629;42.496;25.620;2022-07-23T17:22:13;10.02;;;6.10;;
17024;SDS011;8629;42.496;25.620;2022-07-23T17:28:20;10.10;;;5.15;;
17024;SDS011;8629;42.496;25.620;2022-07-23T17:30:47;37.08;;;7.25;;
17024;SDS011;8629;42.496;25.620;2022-07-23T17:33:14;9.13;;;4.80;;
17024;SDS011;8629;42.496;25.620;2022-07-23T17:35:41;11.35;;;5.38;;
17024;SDS011;8629;42.496;25.620;2022-07-23T17:38:11;11.25;;;6.18;;
17024;SDS011;8629;42.496;25.620;2022-07-23T17:40:38;9.05;;;5.22;;
17024;SDS011;8629;42.496;25.620;2022-07-23T17:43:05;11.88;;;5.97;;
17024;SDS011;8629;42.496;25.620;2022-07-23T17:45:35;8.75;;;5.20;;
17024;SDS011;8629;42.496;25.620;2022-07-23T17:48:02;8.80;;;5.03;;
17024;SDS011;8629;42.496;25.620;2022-07-23T17:50:30;6.63;;;4.60;;
17024;SDS011;8629;42.496;25.620;2022-07-23T17:53:00;8.70;;;5.32;;
17024;SDS011;8629;42.496;25.620;2022-07-23T17:55:31;7.63;;;4.70;;
17024;SDS011;8629;42.496;25.620;2022-07-23T17:58:01;6.45;;;4.65;;
17024;SDS011;8629;42.496;25.620;2022-07-23T18:00:29;13.40;;;4.65;;
17024;SDS011;8629;42.496;25.620;2022-07-23T18:02:58;10.50;;;5.72;;
17024;SDS011;8629;42.496;25.620;2022-07-23T18:05:25;8.38;;;4.90;;
17024;SDS011;8629;42.496;25.620;2022-07-23T18:11:15;6.05;;;5.10;;
17024;SDS011;8629;42.496;25.620;2022-07-23T18:13:43;9.52;;;5.47;;